createdAt,value
2016-11-24T00:00:46.021Z,22.4
2016-11-24T00:01:46.048Z,22.46
2016-11-24T00:02:46.078Z,22.4
2016-11-24T00:03:46.412Z,22.43
2016-11-24T00:04:46.128Z,22.43
2016-11-24T00:05:46.171Z,22.45
2016-11-24T00:06:46.194Z,22.42
2016-11-24T00:07:46.526Z,22.36
2016-11-24T00:08:46.243Z,22.36
2016-11-24T00:09:46.279Z,22.37
2016-11-24T00:10:46.000Z,22.36
2016-11-24T00:11:46.030Z,22.46
2016-11-24T00:12:46.665Z,22.42
2016-11-24T00:13:46.694Z,22.4
2016-11-24T00:14:46.715Z,22.52
2016-11-24T00:15:46.752Z,22.37
2016-11-24T00:16:46.776Z,22.42
2016-11-24T00:17:46.206Z,22.37
2016-11-24T00:18:46.838Z,22.39
2016-11-24T00:19:46.555Z,22.37
2016-11-24T00:20:46.883Z,22.37
2016-11-24T00:21:46.925Z,22.37
2016-11-24T00:22:46.949Z,22.39
2016-11-24T00:23:46.665Z,22.4
2016-11-24T00:24:47.002Z,22.35
2016-11-24T00:25:46.407Z,22.39
2016-11-24T00:26:47.060Z,22.37
2016-11-24T00:27:46.780Z,22.36
2016-11-24T00:28:47.118Z,22.42
2016-11-24T00:29:47.138Z,22.37
2016-11-24T00:30:47.179Z,22.35
2016-11-24T00:31:46.887Z,22.39
2016-11-24T00:32:47.228Z,22.33
2016-11-24T00:33:46.945Z,22.35
2016-11-24T00:34:46.673Z,22.35
2016-11-24T00:35:47.302Z,22.25
2016-11-24T00:36:47.023Z,22.28
2016-11-24T00:37:47.068Z,22.24
2016-11-24T00:38:47.093Z,22.28
2016-11-24T00:39:47.421Z,22.27
2016-11-24T00:40:47.482Z,22.27
2016-11-24T00:41:47.174Z,22.25
2016-11-24T00:42:47.203Z,22.28
2016-11-24T00:43:47.536Z,22.27
2016-11-24T00:44:47.561Z,22.31
2016-11-24T00:45:47.283Z,22.31
2016-11-24T00:46:47.618Z,22.35
2016-11-24T00:47:47.339Z,22.28
2016-11-24T00:48:47.367Z,22.21
2016-11-24T00:49:47.092Z,22.33
2016-11-24T00:50:47.425Z,22.27
2016-11-24T00:51:47.761Z,22.35
2016-11-24T00:52:47.474Z,22.33
2016-11-24T00:53:47.815Z,22.27
2016-11-24T00:54:47.531Z,22.22
2016-11-24T00:55:47.576Z,22.28
2016-11-24T00:56:47.904Z,22.3
2016-11-24T00:57:47.929Z,22.28
2016-11-24T00:58:47.950Z,22.3
2016-11-24T00:59:47.683Z,22.2
2016-11-24T01:00:47.404Z,22.21
2016-11-24T01:01:48.044Z,22.24
2016-11-24T01:02:48.061Z,22.21
2016-11-24T01:03:48.094Z,22.21
2016-11-24T01:04:48.123Z,22.27
2016-11-24T01:05:47.531Z,22.21
2016-11-24T01:06:47.878Z,22.22
2016-11-24T01:07:48.209Z,22.2
2016-11-24T01:08:47.923Z,22.25
2016-11-24T01:09:48.275Z,22.2
2016-11-24T01:10:47.995Z,22.24
2016-11-24T01:11:48.320Z,22.21
2016-11-24T01:12:48.062Z,22.24
2016-11-24T01:13:48.362Z,22.24
2016-11-24T01:14:48.407Z,22.21
2016-11-24T01:15:48.431Z,22.22
2016-11-24T01:16:47.862Z,22.18
2016-11-24T01:17:48.213Z,22.18
2016-11-24T01:18:48.503Z,22.15
2016-11-24T01:19:48.234Z,22.15
2016-11-24T01:20:48.563Z,22.14
2016-11-24T01:21:48.287Z,22.12
2016-11-24T01:22:48.625Z,22.1
2016-11-24T01:23:48.649Z,22.14
2016-11-24T01:24:48.378Z,22.1
2016-11-24T01:25:48.708Z,22.09
2016-11-24T01:26:48.443Z,22.12
2016-11-24T01:27:48.156Z,22.21
2016-11-24T01:28:48.497Z,22.07
2016-11-24T01:29:48.826Z,22.1
2016-11-24T01:30:48.574Z,22.07
2016-11-24T01:31:48.879Z,22.15
2016-11-24T01:32:48.904Z,22.18
2016-11-24T01:33:48.328Z,22.14
2016-11-24T01:34:48.665Z,22.1
2016-11-24T01:35:48.982Z,22.09
2016-11-24T01:36:49.039Z,22.09
2016-11-24T01:37:49.059Z,22.1
2016-11-24T01:38:49.068Z,22.05
2016-11-24T01:39:49.103Z,22.1
2016-11-24T01:40:49.134Z,22.1
2016-11-24T01:41:49.159Z,22.1
2016-11-24T01:42:48.583Z,22.03
2016-11-24T01:43:49.216Z,22.03
2016-11-24T01:44:48.925Z,22.06
2016-11-24T01:45:48.957Z,22
2016-11-24T01:46:49.291Z,22.06
2016-11-24T01:47:49.315Z,22.09
2016-11-24T01:48:49.048Z,22.03
2016-11-24T01:49:49.072Z,22.05
2016-11-24T01:50:49.405Z,22.06
2016-11-24T01:51:49.438Z,22.05
2016-11-24T01:52:49.159Z,22.05
2016-11-24T01:53:49.496Z,22.03
2016-11-24T01:54:49.245Z,22.06
2016-11-24T01:55:49.545Z,22.03
2016-11-24T01:56:48.966Z,22.06
2016-11-24T01:57:49.590Z,22.02
2016-11-24T01:58:49.627Z,22
2016-11-24T01:59:49.044Z,22.05
2016-11-24T02:00:49.377Z,22.09
2016-11-24T02:01:49.418Z,22.09
2016-11-24T02:02:49.435Z,22.1
2016-11-24T02:03:49.159Z,22
2016-11-24T02:04:49.491Z,21.99
2016-11-24T02:05:49.529Z,22.1
2016-11-24T02:06:49.853Z,22.03
2016-11-24T02:07:49.270Z,22.03
2016-11-24T02:08:49.907Z,22.12
2016-11-24T02:09:49.640Z,22.03
2016-11-24T02:10:49.660Z,22.1
2016-11-24T02:11:49.985Z,21.99
2016-11-24T02:12:49.711Z,22
2016-11-24T02:13:49.751Z,21.96
2016-11-24T02:14:50.070Z,22.05
2016-11-24T02:15:49.808Z,22
2016-11-24T02:16:49.824Z,22.05
2016-11-24T02:17:50.149Z,22.06
2016-11-24T02:18:50.183Z,22.03
2016-11-24T02:19:49.606Z,22.05
2016-11-24T02:20:49.944Z,22.02
2016-11-24T02:21:49.960Z,21.99
2016-11-24T02:22:50.305Z,22
2016-11-24T02:23:50.330Z,22
2016-11-24T02:24:50.360Z,22.02
2016-11-24T02:25:50.371Z,22.03
2016-11-24T02:26:49.799Z,22
2016-11-24T02:27:50.436Z,21.88
2016-11-24T02:28:50.470Z,21.9
2016-11-24T02:29:50.183Z,21.92
2016-11-24T02:30:50.511Z,21.94
2016-11-24T02:31:50.240Z,21.91
2016-11-24T02:32:50.269Z,21.91
2016-11-24T02:33:50.298Z,21.9
2016-11-24T02:34:50.326Z,21.96
2016-11-24T02:35:50.655Z,21.9
2016-11-24T02:36:50.691Z,21.92
2016-11-24T02:37:50.109Z,22
2016-11-24T02:38:50.753Z,21.98
2016-11-24T02:39:50.770Z,21.91
2016-11-24T02:40:50.803Z,21.83
2016-11-24T02:41:50.519Z,21.94
2016-11-24T02:42:50.851Z,21.83
2016-11-24T02:43:50.573Z,21.82
2016-11-24T02:44:50.909Z,21.86
2016-11-24T02:45:50.922Z,21.96
2016-11-24T02:46:50.963Z,21.99
2016-11-24T02:47:50.383Z,21.91
2016-11-24T02:48:51.020Z,21.82
2016-11-24T02:49:51.045Z,21.86
2016-11-24T02:50:50.763Z,21.9
2016-11-24T02:51:50.795Z,21.88
2016-11-24T02:52:51.147Z,21.84
2016-11-24T02:53:50.852Z,21.88
2016-11-24T02:54:50.573Z,21.84
2016-11-24T02:55:50.918Z,21.96
2016-11-24T02:56:50.926Z,21.83
2016-11-24T02:57:51.267Z,21.91
2016-11-24T02:58:51.297Z,21.79
2016-11-24T02:59:51.350Z,21.88
2016-11-24T03:00:51.362Z,21.82
2016-11-24T03:01:51.071Z,21.91
2016-11-24T03:02:51.411Z,21.82
2016-11-24T03:03:51.427Z,21.9
2016-11-24T03:04:51.464Z,21.9
2016-11-24T03:05:51.493Z,21.86
2016-11-24T03:06:50.915Z,21.91
2016-11-24T03:07:51.552Z,21.84
2016-11-24T03:08:51.571Z,21.88
2016-11-24T03:09:51.604Z,21.82
2016-11-24T03:10:51.641Z,21.84
2016-11-24T03:11:51.350Z,21.83
2016-11-24T03:12:51.374Z,21.79
2016-11-24T03:13:51.719Z,21.83
2016-11-24T03:14:51.128Z,21.84
2016-11-24T03:15:51.456Z,21.77
2016-11-24T03:16:51.189Z,21.88
2016-11-24T03:17:51.517Z,21.83
2016-11-24T03:18:51.855Z,21.77
2016-11-24T03:19:51.871Z,21.8
2016-11-24T03:20:51.904Z,21.8
2016-11-24T03:21:51.928Z,21.79
2016-11-24T03:22:51.957Z,21.83
2016-11-24T03:23:51.990Z,21.82
2016-11-24T03:24:51.410Z,21.74
2016-11-24T03:25:52.052Z,21.79
2016-11-24T03:26:52.068Z,21.77
2016-11-24T03:27:51.829Z,21.71
2016-11-24T03:28:52.121Z,21.75
2016-11-24T03:29:51.855Z,21.75
2016-11-24T03:30:52.187Z,21.74
2016-11-24T03:31:51.940Z,21.71
2016-11-24T03:32:51.941Z,21.8
2016-11-24T03:33:52.262Z,21.74
2016-11-24T03:34:52.295Z,21.74
2016-11-24T03:35:52.007Z,21.72
2016-11-24T03:36:52.348Z,21.79
2016-11-24T03:37:52.076Z,21.69
2016-11-24T03:38:52.101Z,21.79
2016-11-24T03:39:51.814Z,21.77
2016-11-24T03:40:52.451Z,21.71
2016-11-24T03:41:51.876Z,21.72
2016-11-24T03:42:52.512Z,21.75
2016-11-24T03:43:52.547Z,21.69
2016-11-24T03:44:52.573Z,21.72
2016-11-24T03:45:51.998Z,21.71
2016-11-24T03:46:52.619Z,21.71
2016-11-24T03:47:52.344Z,21.75
2016-11-24T03:48:52.676Z,21.72
2016-11-24T03:49:52.417Z,21.71
2016-11-24T03:50:52.731Z,21.68
2016-11-24T03:51:52.446Z,21.72
2016-11-24T03:52:52.788Z,21.67
2016-11-24T03:53:52.808Z,21.68
2016-11-24T03:54:52.531Z,21.68
2016-11-24T03:55:52.874Z,21.68
2016-11-24T03:56:52.927Z,21.68
2016-11-24T03:57:52.927Z,21.69
2016-11-24T03:58:52.956Z,21.67
2016-11-24T03:59:52.981Z,21.64
2016-11-24T04:00:53.015Z,21.69
2016-11-24T04:01:52.729Z,21.68
2016-11-24T04:02:52.770Z,21.59
2016-11-24T04:03:53.090Z,21.64
2016-11-24T04:04:53.112Z,21.54
2016-11-24T04:05:52.842Z,21.62
2016-11-24T04:06:52.866Z,21.68
2016-11-24T04:07:52.899Z,21.65
2016-11-24T04:08:53.232Z,21.59
2016-11-24T04:09:52.976Z,21.67
2016-11-24T04:10:52.989Z,21.58
2016-11-24T04:11:53.014Z,21.61
2016-11-24T04:12:53.035Z,21.67
2016-11-24T04:13:53.367Z,21.53
2016-11-24T04:14:53.391Z,21.65
2016-11-24T04:15:53.120Z,21.58
2016-11-24T04:16:53.133Z,21.62
2016-11-24T04:17:52.866Z,21.58
2016-11-24T04:18:53.203Z,21.56
2016-11-24T04:19:53.544Z,21.65
2016-11-24T04:20:53.256Z,21.56
2016-11-24T04:21:53.293Z,21.54
2016-11-24T04:22:53.314Z,21.61
2016-11-24T04:23:53.345Z,21.54
2016-11-24T04:24:53.363Z,21.59
2016-11-24T04:25:53.692Z,21.58
2016-11-24T04:26:53.721Z,21.56
2016-11-24T04:27:53.481Z,21.62
2016-11-24T04:28:53.470Z,21.56
2016-11-24T04:29:53.494Z,21.62
2016-11-24T04:30:53.832Z,21.59
2016-11-24T04:31:53.568Z,21.58
2016-11-24T04:32:53.880Z,21.59
2016-11-24T04:33:53.610Z,21.62
2016-11-24T04:34:53.648Z,21.59
2016-11-24T04:35:53.675Z,21.61
2016-11-24T04:36:53.696Z,21.54
2016-11-24T04:37:54.029Z,21.52
2016-11-24T04:38:53.743Z,21.58
2016-11-24T04:39:53.770Z,21.49
2016-11-24T04:40:53.807Z,21.59
2016-11-24T04:41:53.836Z,21.59
2016-11-24T04:42:53.876Z,21.59
2016-11-24T04:43:54.197Z,21.56
2016-11-24T04:44:53.602Z,21.47
2016-11-24T04:45:53.626Z,21.54
2016-11-24T04:46:54.287Z,21.5
2016-11-24T04:47:54.001Z,21.58
2016-11-24T04:48:54.325Z,21.58
2016-11-24T04:49:53.754Z,21.53
2016-11-24T04:50:54.074Z,21.47
2016-11-24T04:51:54.122Z,21.54
2016-11-24T04:52:54.140Z,21.46
2016-11-24T04:53:54.165Z,21.47
2016-11-24T04:54:54.193Z,21.46
2016-11-24T04:55:54.218Z,21.52
2016-11-24T04:56:54.547Z,21.61
2016-11-24T04:57:54.263Z,21.49
2016-11-24T04:58:54.296Z,21.46
2016-11-24T04:59:54.341Z,21.44
2016-11-24T05:00:54.361Z,21.5
2016-11-24T05:01:54.686Z,21.49
2016-11-24T05:02:54.711Z,21.46
2016-11-24T05:03:54.736Z,21.44
2016-11-24T05:04:54.772Z,21.43
2016-11-24T05:05:54.485Z,21.43
2016-11-24T05:06:54.825Z,21.53
2016-11-24T05:07:54.547Z,21.49
2016-11-24T05:08:54.878Z,21.5
2016-11-24T05:09:54.601Z,21.5
2016-11-24T05:10:54.930Z,21.44
2016-11-24T05:11:54.665Z,21.53
2016-11-24T05:12:54.986Z,21.46
2016-11-24T05:13:54.710Z,21.5
2016-11-24T05:14:55.050Z,21.47
2016-11-24T05:15:55.063Z,21.44
2016-11-24T05:16:54.800Z,21.44
2016-11-24T05:17:54.816Z,21.53
2016-11-24T05:18:54.841Z,21.49
2016-11-24T05:19:54.870Z,21.47
2016-11-24T05:20:55.214Z,21.49
2016-11-24T05:21:55.236Z,21.43
2016-11-24T05:22:54.959Z,21.46
2016-11-24T05:23:54.981Z,21.4
2016-11-24T05:24:55.315Z,21.47
2016-11-24T05:25:55.034Z,21.43
2016-11-24T05:26:55.058Z,21.42
2016-11-24T05:27:55.103Z,21.43
2016-11-24T05:28:55.428Z,21.43
2016-11-24T05:29:55.157Z,21.46
2016-11-24T05:30:54.861Z,21.5
2016-11-24T05:31:55.205Z,21.44
2016-11-24T05:32:55.530Z,21.43
2016-11-24T05:33:55.568Z,21.5
2016-11-24T05:34:55.283Z,21.5
2016-11-24T05:35:55.312Z,21.5
2016-11-24T05:36:55.345Z,21.46
2016-11-24T05:37:55.362Z,21.49
2016-11-24T05:38:55.704Z,21.44
2016-11-24T05:39:55.720Z,21.49
2016-11-24T05:40:55.476Z,21.49
2016-11-24T05:41:55.482Z,21.5
2016-11-24T05:42:55.193Z,21.47
2016-11-24T05:43:55.530Z,21.59
2016-11-24T05:44:55.871Z,21.52
2016-11-24T05:45:55.580Z,21.54
2016-11-24T05:46:55.917Z,21.58
2016-11-24T05:47:55.949Z,21.56
2016-11-24T05:48:55.978Z,21.59
2016-11-24T05:49:56.006Z,21.58
2016-11-24T05:50:56.031Z,21.62
2016-11-24T05:51:55.744Z,21.58
2016-11-24T05:52:55.773Z,21.62
2016-11-24T05:53:56.113Z,21.62
2016-11-24T05:54:55.825Z,21.69
2016-11-24T05:55:55.859Z,21.68
2016-11-24T05:56:56.192Z,21.71
2016-11-24T05:57:55.913Z,21.64
2016-11-24T05:58:56.241Z,21.67
2016-11-24T05:59:55.966Z,21.69
2016-11-24T06:00:56.303Z,21.77
2016-11-24T06:01:56.031Z,21.77
2016-11-24T06:02:56.368Z,21.75
2016-11-24T06:03:56.385Z,21.84
2016-11-24T06:04:56.098Z,21.86
2016-11-24T06:05:56.438Z,21.75
2016-11-24T06:06:56.479Z,21.82
2016-11-24T06:07:55.876Z,21.82
2016-11-24T06:08:56.221Z,21.86
2016-11-24T06:09:56.241Z,21.83
2016-11-24T06:10:56.278Z,21.84
2016-11-24T06:11:56.595Z,21.9
2016-11-24T06:12:56.323Z,21.92
2016-11-24T06:13:56.056Z,21.88
2016-11-24T06:14:56.387Z,21.77
2016-11-24T06:15:56.410Z,21.82
2016-11-24T06:16:56.443Z,21.94
2016-11-24T06:17:56.459Z,21.84
2016-11-24T06:18:56.799Z,21.91
2016-11-24T06:19:56.826Z,21.96
2016-11-24T06:20:56.542Z,21.9
2016-11-24T06:21:56.578Z,21.9
2016-11-24T06:22:56.603Z,21.92
2016-11-24T06:23:56.932Z,21.84
2016-11-24T06:24:56.960Z,21.91
2016-11-24T06:25:56.989Z,21.88
2016-11-24T06:26:57.022Z,21.96
2016-11-24T06:27:57.047Z,22.02
2016-11-24T06:28:57.083Z,22.02
2016-11-24T06:29:56.792Z,22.05
2016-11-24T06:30:57.129Z,22.06
2016-11-24T06:31:57.161Z,22.09
2016-11-24T06:32:56.878Z,22.06
2016-11-24T06:33:57.235Z,22.07
2016-11-24T06:34:57.232Z,22.06
2016-11-24T06:35:56.656Z,22.06
2016-11-24T06:36:56.973Z,22.06
2016-11-24T06:37:57.009Z,22.03
2016-11-24T06:38:57.349Z,22.03
2016-11-24T06:39:56.795Z,22.07
2016-11-24T06:40:57.105Z,22.06
2016-11-24T06:41:57.122Z,22.09
2016-11-24T06:42:57.166Z,22.03
2016-11-24T06:43:57.483Z,22.12
2016-11-24T06:44:57.507Z,22.09
2016-11-24T06:45:57.237Z,22.06
2016-11-24T06:46:57.293Z,22.09
2016-11-24T06:47:57.298Z,22.1
2016-11-24T06:48:57.626Z,22.12
2016-11-24T06:49:57.339Z,22.14
2016-11-24T06:50:57.376Z,22.07
2016-11-24T06:51:57.696Z,22.17
2016-11-24T06:52:57.434Z,22.1
2016-11-24T06:53:57.154Z,22.1
2016-11-24T06:54:57.483Z,22.12
2016-11-24T06:55:57.212Z,22.14
2016-11-24T06:56:57.844Z,22.15
2016-11-24T06:57:57.565Z,22.12
2016-11-24T06:58:57.290Z,22.14
2016-11-24T06:59:57.918Z,22.2
2016-11-24T07:00:57.344Z,22.2
2016-11-24T07:01:57.677Z,22.17
2016-11-24T07:02:58.020Z,22.17
2016-11-24T07:03:57.747Z,22.21
2016-11-24T07:04:57.455Z,22.21
2016-11-24T07:05:58.126Z,22.24
2016-11-24T07:06:57.516Z,22.22
2016-11-24T07:07:57.850Z,22.18
2016-11-24T07:08:58.182Z,22.18
2016-11-24T07:09:57.903Z,22.15
2016-11-24T07:10:57.952Z,22.12
2016-11-24T07:11:58.266Z,22.21
2016-11-24T07:12:57.997Z,22.2
2016-11-24T07:13:58.321Z,22.15
2016-11-24T07:14:57.730Z,22.18
2016-11-24T07:15:58.367Z,22.18
2016-11-24T07:16:57.784Z,22.24
2016-11-24T07:17:58.432Z,22.15
2016-11-24T07:18:58.594Z,22.2
2016-11-24T07:19:58.470Z,22.17
2016-11-24T07:20:58.511Z,22.18
2016-11-24T07:21:58.543Z,22.21
2016-11-24T07:22:58.560Z,22.1
2016-11-24T07:23:58.602Z,22.2
2016-11-24T07:24:58.321Z,22.15
2016-11-24T07:25:58.354Z,22.2
2016-11-24T07:26:58.395Z,22.21
2016-11-24T07:27:58.708Z,22.22
2016-11-24T07:28:58.441Z,22.15
2016-11-24T07:29:58.494Z,22.21
2016-11-24T07:30:58.795Z,22.25
2016-11-24T07:31:58.821Z,22.2
2016-11-24T07:32:58.549Z,22.22
2016-11-24T07:33:58.577Z,22.22
2016-11-24T07:34:58.602Z,22.22
2016-11-24T07:35:58.942Z,22.17
2016-11-24T07:36:58.659Z,22.22
2016-11-24T07:37:58.676Z,22.18
2016-11-24T07:38:59.008Z,22.21
2016-11-24T07:39:59.030Z,22.2
2016-11-24T07:40:58.757Z,22.22
2016-11-24T07:41:58.791Z,22.18
2016-11-24T07:42:58.820Z,22.17
2016-11-24T07:43:59.180Z,22.17
2016-11-24T07:44:58.881Z,22.07
2016-11-24T07:45:58.610Z,22.12
2016-11-24T07:46:59.230Z,22.17
2016-11-24T07:47:58.950Z,22.1
2016-11-24T07:48:59.293Z,22.14
2016-11-24T07:49:59.325Z,22.17
2016-11-24T07:50:59.054Z,22.14
2016-11-24T07:51:58.771Z,22.09
2016-11-24T07:52:59.111Z,22.14
2016-11-24T07:53:59.431Z,22.1
2016-11-24T07:54:59.157Z,22.09
2016-11-24T07:55:59.181Z,22.12
2016-11-24T07:56:58.903Z,22.07
2016-11-24T07:57:59.547Z,22.09
2016-11-24T07:58:59.263Z,22.07
2016-11-24T07:59:59.603Z,22.14
2016-11-24T08:00:59.321Z,22.1
2016-11-24T08:01:59.650Z,22.07
2016-11-24T08:02:59.380Z,22.17
2016-11-24T08:03:59.399Z,22.07
2016-11-24T08:04:59.424Z,22.14
2016-11-24T08:05:59.472Z,22.09
2016-11-24T08:06:59.489Z,22.18
2016-11-24T08:07:59.206Z,22.09
2016-11-24T08:08:59.235Z,22.06
2016-11-24T08:09:59.580Z,22.12
2016-11-24T08:10:59.908Z,22.07
2016-11-24T08:11:59.326Z,22.07
2016-11-24T08:12:59.661Z,22.1
2016-11-24T08:13:59.988Z,22.02
2016-11-24T08:14:59.720Z,22.09
2016-11-24T08:16:00.035Z,22.02
2016-11-24T08:16:59.761Z,22.02
2016-11-24T08:18:00.093Z,21.99
2016-11-24T08:19:00.131Z,22.12
2016-11-24T08:20:00.159Z,22.06
2016-11-24T08:20:59.880Z,22.06
2016-11-24T08:21:59.593Z,22.06
2016-11-24T08:23:00.241Z,22.02
2016-11-24T08:24:00.266Z,22.06
2016-11-24T08:25:00.294Z,22.05
2016-11-24T08:26:00.331Z,22.02
2016-11-24T08:27:00.356Z,22.05
2016-11-24T08:28:00.377Z,22.03
2016-11-24T08:28:59.794Z,22.07
2016-11-24T08:30:00.125Z,22.03
2016-11-24T08:31:00.459Z,22.06
2016-11-24T08:32:00.179Z,22.06
2016-11-24T08:33:00.510Z,22.06
2016-11-24T08:34:00.238Z,22.05
2016-11-24T08:35:00.574Z,22.02
2016-11-24T08:36:00.295Z,21.99
2016-11-24T08:37:00.624Z,22.03
2016-11-24T08:38:00.661Z,22.05
2016-11-24T08:39:00.078Z,22.05
2016-11-24T08:40:00.406Z,22.05
2016-11-24T08:41:00.727Z,22.07
2016-11-24T08:42:00.463Z,22.09
2016-11-24T08:43:00.496Z,22.09
2016-11-24T08:44:00.517Z,22.02
2016-11-24T08:45:00.545Z,22.03
2016-11-24T08:46:00.578Z,21.99
2016-11-24T08:47:00.916Z,22.03
2016-11-24T08:48:00.931Z,22.03
2016-11-24T08:49:00.964Z,22.02
2016-11-24T08:50:00.686Z,22.09
2016-11-24T08:51:01.014Z,22.03
2016-11-24T08:52:00.726Z,22.03
2016-11-24T08:53:00.772Z,22.02
2016-11-24T08:54:01.104Z,22.05
2016-11-24T08:55:00.821Z,22.09
2016-11-24T08:56:00.863Z,22.1
2016-11-24T08:57:01.178Z,22.09
2016-11-24T08:58:00.907Z,22.15
2016-11-24T08:59:01.236Z,22.15
2016-11-24T09:00:00.955Z,22.1
2016-11-24T09:01:01.293Z,22.12
2016-11-24T09:02:01.017Z,22.17
2016-11-24T09:03:01.047Z,22.09
2016-11-24T09:04:01.071Z,22.06
2016-11-24T09:05:01.097Z,22.15
2016-11-24T09:06:01.138Z,22.15
2016-11-24T09:07:01.457Z,22.07
2016-11-24T09:08:01.518Z,22.12
2016-11-24T09:09:01.510Z,22.03
2016-11-24T09:10:01.244Z,22.06
2016-11-24T09:11:01.266Z,22.12
2016-11-24T09:12:01.285Z,22.14
2016-11-24T09:13:01.630Z,22.17
2016-11-24T09:14:01.359Z,22.1
2016-11-24T09:15:01.411Z,22.12
2016-11-24T09:16:01.407Z,22.12
2016-11-24T09:17:01.736Z,22.12
2016-11-24T09:18:01.765Z,22.1
2016-11-24T09:19:01.493Z,22.17
2016-11-24T09:20:01.210Z,22.14
2016-11-24T09:21:01.543Z,22.15
2016-11-24T09:22:01.568Z,22.18
2016-11-24T09:23:01.304Z,22.22
2016-11-24T09:24:01.932Z,22.2
2016-11-24T09:25:01.645Z,22.18
2016-11-24T09:26:01.683Z,22.17
2016-11-24T09:27:02.019Z,22.18
2016-11-24T09:28:02.044Z,22.18
2016-11-24T09:29:01.459Z,22.21
2016-11-24T09:30:01.824Z,22.14
2016-11-24T09:31:01.825Z,22.15
2016-11-24T09:32:01.546Z,22.15
2016-11-24T09:33:01.871Z,22.21
2016-11-24T09:34:02.203Z,22.22
2016-11-24T09:35:01.632Z,22.24
2016-11-24T09:36:02.273Z,22.2
2016-11-24T09:37:02.298Z,22.21
2016-11-24T09:38:02.318Z,22.24
2016-11-24T09:39:02.355Z,22.25
2016-11-24T09:40:02.066Z,22.27
2016-11-24T09:41:02.404Z,22.27
2016-11-24T09:42:01.817Z,22.31
2016-11-24T09:43:02.154Z,22.28
2016-11-24T09:44:02.184Z,22.28
2016-11-24T09:45:02.528Z,22.31
2016-11-24T09:46:02.243Z,22.39
2016-11-24T09:47:02.568Z,22.27
2016-11-24T09:48:02.290Z,22.3
2016-11-24T09:49:02.322Z,22.31
2016-11-24T09:50:02.354Z,22.36
2016-11-24T09:51:02.683Z,22.39
2016-11-24T09:52:02.712Z,22.36
2016-11-24T09:53:02.740Z,22.33
2016-11-24T09:54:02.777Z,22.39
2016-11-24T09:55:02.786Z,22.35
2016-11-24T09:56:02.824Z,22.39
2016-11-24T09:57:02.547Z,22.4
2016-11-24T09:58:02.880Z,22.39
2016-11-24T09:59:02.609Z,22.37
2016-11-24T10:00:02.625Z,22.36
2016-11-24T10:01:02.358Z,22.4
2016-11-24T10:02:02.714Z,22.46
2016-11-24T10:03:02.719Z,22.42
2016-11-24T10:04:02.432Z,22.37
2016-11-24T10:05:02.768Z,22.4
2016-11-24T10:06:02.502Z,22.36
2016-11-24T10:07:02.835Z,22.4
2016-11-24T10:08:02.851Z,22.45
2016-11-24T10:09:03.192Z,22.4
2016-11-24T10:10:02.604Z,22.37
2016-11-24T10:11:03.286Z,22.43
2016-11-24T10:12:02.966Z,22.52
2016-11-24T10:13:02.999Z,22.51
2016-11-24T10:14:03.015Z,22.51
2016-11-24T10:15:03.057Z,22.46
2016-11-24T10:16:03.382Z,22.47
2016-11-24T10:17:03.421Z,22.43
2016-11-24T10:18:03.130Z,22.49
2016-11-24T10:19:03.471Z,22.52
2016-11-24T10:20:03.191Z,22.49
2016-11-24T10:21:03.212Z,22.51
2016-11-24T10:22:03.245Z,22.51
2016-11-24T10:23:03.276Z,22.51
2016-11-24T10:24:03.303Z,22.51
2016-11-24T10:25:03.336Z,22.49
2016-11-24T10:26:03.352Z,22.47
2016-11-24T10:27:03.689Z,22.45
2016-11-24T10:28:03.729Z,22.51
2016-11-24T10:29:03.751Z,22.52
2016-11-24T10:30:03.779Z,22.51
2016-11-24T10:31:03.192Z,22.52
2016-11-24T10:32:03.521Z,22.51
2016-11-24T10:33:03.251Z,22.54
2016-11-24T10:34:03.286Z,22.49
2016-11-24T10:35:03.315Z,22.58
2016-11-24T10:36:03.466Z,22.55
2016-11-24T10:37:04.044Z,22.49
2016-11-24T10:38:03.705Z,22.55
2016-11-24T10:39:04.025Z,22.57
2016-11-24T10:40:03.754Z,22.58
2016-11-24T10:41:03.475Z,22.57
2016-11-24T10:42:04.111Z,22.61
2016-11-24T10:43:03.840Z,22.58
2016-11-24T10:44:03.882Z,22.64
2016-11-24T10:45:03.898Z,22.62
2016-11-24T10:46:04.227Z,22.61
2016-11-24T10:47:03.653Z,22.61
2016-11-24T10:48:03.671Z,22.52
2016-11-24T10:49:04.003Z,22.55
2016-11-24T10:50:04.037Z,22.67
2016-11-24T10:51:04.061Z,22.67
2016-11-24T10:52:04.094Z,22.6
2016-11-24T10:53:04.122Z,22.67
2016-11-24T10:54:04.154Z,22.62
2016-11-24T10:55:04.167Z,22.65
2016-11-24T10:56:04.508Z,22.62
2016-11-24T10:57:04.529Z,22.61
2016-11-24T10:58:04.257Z,22.7
2016-11-24T10:59:04.590Z,22.68
2016-11-24T11:00:04.007Z,22.64
2016-11-24T11:01:04.643Z,22.61
2016-11-24T11:02:04.376Z,22.7
2016-11-24T11:03:04.701Z,22.67
2016-11-24T11:04:04.125Z,22.65
2016-11-24T11:05:04.153Z,22.75
2016-11-24T11:06:04.786Z,22.65
2016-11-24T11:07:04.815Z,22.7
2016-11-24T11:08:04.844Z,22.75
2016-11-24T11:09:04.872Z,22.7
2016-11-24T11:10:04.602Z,22.65
2016-11-24T11:11:04.639Z,22.7
2016-11-24T11:12:04.659Z,22.75
2016-11-24T11:13:04.980Z,22.79
2016-11-24T11:14:04.708Z,22.77
2016-11-24T11:15:04.435Z,22.79
2016-11-24T11:16:05.074Z,22.77
2016-11-24T11:17:04.794Z,22.82
2016-11-24T11:18:04.547Z,22.85
2016-11-24T11:19:04.851Z,22.86
2016-11-24T11:20:04.578Z,22.86
2016-11-24T11:21:05.205Z,22.88
2016-11-24T11:22:04.634Z,22.88
2016-11-24T11:23:04.978Z,22.9
2016-11-24T11:24:05.295Z,22.88
2016-11-24T11:25:05.328Z,22.85
2016-11-24T11:26:05.060Z,22.9
2016-11-24T11:27:05.077Z,22.88
2016-11-24T11:28:05.406Z,22.88
2016-11-24T11:29:05.449Z,22.94
2016-11-24T11:30:05.468Z,22.94
2016-11-24T11:31:05.496Z,22.92
2016-11-24T11:32:04.917Z,22.91
2016-11-24T11:33:04.974Z,22.94
2016-11-24T11:34:05.284Z,23.01
2016-11-24T11:35:05.608Z,22.98
2016-11-24T11:36:05.670Z,22.95
2016-11-24T11:37:05.367Z,23.04
2016-11-24T11:38:05.386Z,23.05
2016-11-24T11:39:05.418Z,22.91
2016-11-24T11:40:05.447Z,23.02
2016-11-24T11:41:05.467Z,22.88
2016-11-24T11:42:05.509Z,22.97
2016-11-24T11:43:05.541Z,22.97
2016-11-24T11:44:05.858Z,23.05
2016-11-24T11:45:05.590Z,23.02
2016-11-24T11:46:05.928Z,23.05
2016-11-24T11:47:05.960Z,23.05
2016-11-24T11:48:06.156Z,23.02
2016-11-24T11:49:05.402Z,23.05
2016-11-24T11:50:05.435Z,23.07
2016-11-24T11:51:05.761Z,23.04
2016-11-24T11:52:05.790Z,22.95
2016-11-24T11:53:06.128Z,23.04
2016-11-24T11:54:06.156Z,23.07
2016-11-24T11:55:05.878Z,23
2016-11-24T11:56:05.898Z,23
2016-11-24T11:57:05.633Z,23.01
2016-11-24T11:58:06.260Z,23.05
2016-11-24T11:59:06.301Z,23.04
2016-11-24T12:00:06.018Z,23.07
2016-11-24T12:01:06.039Z,22.97
2016-11-24T12:02:06.375Z,23.04
2016-11-24T12:03:06.104Z,23.02
2016-11-24T12:04:06.136Z,23.02
2016-11-24T12:05:06.165Z,23.02
2016-11-24T12:06:06.198Z,23.02
2016-11-24T12:07:06.235Z,23.09
2016-11-24T12:08:06.248Z,23.02
2016-11-24T12:09:06.576Z,23.02
2016-11-24T12:10:06.001Z,23.04
2016-11-24T12:11:06.662Z,22.98
2016-11-24T12:12:06.667Z,22.91
2016-11-24T12:13:06.403Z,23.05
2016-11-24T12:14:06.419Z,22.95
2016-11-24T12:15:06.457Z,23.04
2016-11-24T12:16:06.178Z,22.97
2016-11-24T12:17:06.509Z,22.98
2016-11-24T12:18:06.836Z,23
2016-11-24T12:19:06.871Z,22.97
2016-11-24T12:20:06.593Z,22.98
2016-11-24T12:21:06.922Z,22.95
2016-11-24T12:22:06.347Z,22.94
2016-11-24T12:23:06.675Z,23.01
2016-11-24T12:24:07.021Z,22.95
2016-11-24T12:25:06.441Z,23.01
2016-11-24T12:26:06.769Z,23.04
2016-11-24T12:27:07.103Z,22.98
2016-11-24T12:28:07.132Z,22.98
2016-11-24T12:29:06.852Z,22.94
2016-11-24T12:30:06.888Z,23
2016-11-24T12:31:07.213Z,22.94
2016-11-24T12:32:07.234Z,23
2016-11-24T12:33:07.268Z,22.94
2016-11-24T12:34:06.677Z,22.97
2016-11-24T12:35:07.332Z,23.02
2016-11-24T12:36:07.049Z,22.9
2016-11-24T12:37:07.378Z,23.04
2016-11-24T12:38:07.109Z,22.94
2016-11-24T12:39:07.472Z,22.95
2016-11-24T12:40:06.865Z,23.02
2016-11-24T12:41:07.509Z,23.02
2016-11-24T12:42:06.922Z,22.94
2016-11-24T12:43:07.247Z,23.04
2016-11-24T12:44:06.980Z,22.92
2016-11-24T12:45:07.604Z,23.05
2016-11-24T12:46:07.028Z,23.04
2016-11-24T12:47:07.361Z,23.04
2016-11-24T12:48:07.403Z,23.05
2016-11-24T12:49:07.728Z,23.05
2016-11-24T12:50:07.747Z,23.01
2016-11-24T12:51:07.784Z,23.07
2016-11-24T12:52:07.508Z,23.05
2016-11-24T12:53:07.836Z,22.95
2016-11-24T12:54:07.566Z,22.95
2016-11-24T12:55:07.286Z,22.94
2016-11-24T12:56:07.615Z,22.95
2016-11-24T12:57:07.654Z,22.95